Time;durP1;ratioP1;P1;durP2;ratioP2;P2;SDS_P1;SDS_P2;PMS_P1;PMS_P2;Temp;Humidity;BMP_temperature;BMP_pressure;BME280_temperature;BME280_humidity;BME280_pressure;Samples;Min_cycle;Max_cycle;Signal;HPM_P1;HPM_P2
2021/04/06 00:01:50;;;;;;;17.55;9.50;;;;;;;;;;4971817;28;20031;-65
2021/04/06 00:04:28;;;;;;;12.43;7.82;;;;;;;;;;4971728;28;20509;-65
2021/04/06 00:06:57;;;;;;;14.68;8.30;;;;;;;;;;4971755;28;20034;-63
2021/04/06 00:09:24;;;;;;;13.27;7.88;;;;;;;;;;4971830;28;20089;-64
2021/04/06 00:11:52;;;;;;;13.70;7.40;;;;;;;;;;4971765;28;20039;-64
2021/04/06 00:14:18;;;;;;;14.90;8.95;;;;;;;;;;4971649;28;20034;-63
2021/04/06 00:16:45;;;;;;;14.80;9.27;;;;;;;;;;4971828;28;20113;-63
2021/04/06 00:19:12;;;;;;;14.10;8.98;;;;;;;;;;4971457;28;20435;-67
2021/04/06 00:21:38;;;;;;;14.93;8.63;;;;;;;;;;4971627;28;20027;-62
2021/04/06 00:24:05;;;;;;;17.10;9.60;;;;;;;;;;4974496;28;20026;-63
2021/04/06 00:26:48;;;;;;;19.20;11.02;;;;;;;;;;4974988;28;20039;-63
2021/04/06 00:29:15;;;;;;;18.30;11.82;;;;;;;;;;4974801;28;20039;-63
2021/04/06 00:31:46;;;;;;;22.92;13.70;;;;;;;;;;4975035;28;20062;-64
2021/04/06 00:34:13;;;;;;;25.98;14.20;;;;;;;;;;4974633;28;20117;-64
2021/04/06 00:36:40;;;;;;;22.15;13.20;;;;;;;;;;4974981;28;20027;-65
2021/04/06 00:39:06;;;;;;;28.25;15.35;;;;;;;;;;4974650;28;20436;-63
2021/04/06 00:41:33;;;;;;;28.35;15.23;;;;;;;;;;4974261;28;20082;-63
2021/04/06 00:44:00;;;;;;;27.42;15.23;;;;;;;;;;4974845;28;20023;-66
2021/04/06 00:46:27;;;;;;;27.17;15.30;;;;;;;;;;4974439;28;20098;-65
2021/04/06 00:48:55;;;;;;;28.85;15.80;;;;;;;;;;4974648;28;20046;-63
2021/04/06 00:51:21;;;;;;;26.33;14.82;;;;;;;;;;4974692;28;20045;-63
2021/04/06 00:53:54;;;;;;;24.25;14.05;;;;;;;;;;4974492;28;20030;-64
2021/04/06 00:56:26;;;;;;;23.10;13.65;;;;;;;;;;4974423;28;20030;-64
2021/04/06 00:58:53;;;;;;;25.02;13.90;;;;;;;;;;4974459;28;20153;-63
2021/04/06 01:01:34;;;;;;;22.50;13.93;;;;;;;;;;4974260;28;20027;-63
2021/04/06 01:04:03;;;;;;;20.90;13.50;;;;;;;;;;4973881;28;20023;-63
2021/04/06 01:06:29;;;;;;;23.85;13.23;;;;;;;;;;4974567;28;20062;-63
2021/04/06 01:08:57;;;;;;;20.38;13.02;;;;;;;;;;4974130;28;20035;-63
2021/04/06 01:11:23;;;;;;;22.95;13.35;;;;;;;;;;4974873;28;20034;-62
2021/04/06 01:13:50;;;;;;;20.63;13.05;;;;;;;;;;4976274;28;20058;-62
2021/04/06 01:16:17;;;;;;;21.30;12.90;;;;;;;;;;4974793;28;20483;-63
2021/04/06 01:18:44;;;;;;;21.70;13.35;;;;;;;;;;4974141;28;20081;-63
2021/04/06 01:21:10;;;;;;;22.20;12.68;;;;;;;;;;4974046;28;20054;-62
2021/04/06 01:23:37;;;;;;;22.40;13.00;;;;;;;;;;4974064;28;20061;-63
2021/04/06 01:26:03;;;;;;;19.00;12.23;;;;;;;;;;4974002;28;20040;-62
2021/04/06 01:28:31;;;;;;;22.75;12.15;;;;;;;;;;4973618;28;20027;-66
2021/04/06 01:30:58;;;;;;;20.80;12.95;;;;;;;;;;4974036;28;20030;-63
2021/04/06 01:33:30;;;;;;;20.42;12.48;;;;;;;;;;4973205;28;20029;-62
2021/04/06 01:35:57;;;;;;;21.40;12.73;;;;;;;;;;4973951;28;20093;-61
2021/04/06 01:38:28;;;;;;;20.27;12.43;;;;;;;;;;4973721;28;20761;-62
2021/04/06 01:40:54;;;;;;;22.70;13.38;;;;;;;;;;4973664;28;20410;-62
2021/04/06 01:43:24;;;;;;;23.52;13.20;;;;;;;;;;4973725;28;20637;-62
2021/04/06 01:45:55;;;;;;;21.27;12.38;;;;;;;;;;4973896;28;20027;-63
2021/04/06 01:48:22;;;;;;;19.10;11.65;;;;;;;;;;4973633;28;20045;-63
2021/04/06 01:50:52;;;;;;;20.80;11.80;;;;;;;;;;4973251;28;20023;-63
2021/04/06 01:53:19;;;;;;;17.10;11.18;;;;;;;;;;4973561;28;20035;-64
2021/04/06 01:55:51;;;;;;;15.75;10.70;;;;;;;;;;4973491;28;20058;-62
2021/04/06 01:58:19;;;;;;;18.52;11.52;;;;;;;;;;4973521;28;20050;-63
2021/04/06 02:03:18;;;;;;;17.88;11.32;;;;;;;;;;4972974;28;20039;-67
2021/04/06 02:05:46;;;;;;;17.83;11.45;;;;;;;;;;4973052;28;20034;-63
2021/04/06 02:08:16;;;;;;;17.80;10.82;;;;;;;;;;4973092;28;20044;-63
2021/04/06 02:10:43;;;;;;;17.98;11.10;;;;;;;;;;4973119;28;20031;-66
2021/04/06 02:13:13;;;;;;;19.13;10.77;;;;;;;;;;4973006;28;20054;-63
2021/04/06 02:15:54;;;;;;;17.02;10.90;;;;;;;;;;4972776;28;20015;-66
2021/04/06 02:18:22;;;;;;;15.55;10.65;;;;;;;;;;4972821;28;20028;-64
2021/04/06 02:20:51;;;;;;;17.98;11.10;;;;;;;;;;4972953;28;20031;-67
2021/04/06 02:23:18;;;;;;;18.00;11.18;;;;;;;;;;4972821;28;20033;-66
2021/04/06 02:25:49;;;;;;;17.85;11.23;;;;;;;;;;4973017;28;20023;-64
2021/04/06 02:28:15;;;;;;;17.75;10.57;;;;;;;;;;4972799;28;20608;-64
2021/04/06 02:30:49;;;;;;;17.58;10.38;;;;;;;;;;4972633;28;20050;-63
2021/04/06 02:33:17;;;;;;;20.20;11.07;;;;;;;;;;4954616;28;20165;-63
2021/04/06 02:35:53;;;;;;;18.10;11.25;;;;;;;;;;4972741;28;20029;-64
2021/04/06 02:38:19;;;;;;;18.75;10.80;;;;;;;;;;4972527;28;20030;-63
2021/04/06 02:40:45;;;;;;;23.35;10.98;;;;;;;;;;4972175;28;20050;-62
2021/04/06 02:43:11;;;;;;;20.23;11.43;;;;;;;;;;4972469;28;20479;-63
2021/04/06 02:45:37;;;;;;;20.58;11.50;;;;;;;;;;4971729;28;20070;-64
2021/04/06 02:48:05;;;;;;;21.33;12.65;;;;;;;;;;4972477;28;20045;-63
2021/04/06 02:50:31;;;;;;;21.90;11.82;;;;;;;;;;4972543;28;20023;-63
2021/04/06 02:52:58;;;;;;;21.55;12.50;;;;;;;;;;4972554;28;20026;-63
2021/04/06 02:55:25;;;;;;;19.33;11.75;;;;;;;;;;4972641;28;20215;-65
2021/04/06 02:57:52;;;;;;;20.33;12.07;;;;;;;;;;4972379;28;20031;-63
2021/04/06 03:00:27;;;;;;;18.48;11.45;;;;;;;;;;4972601;28;20503;-67
2021/04/06 03:02:54;;;;;;;19.40;11.32;;;;;;;;;;4972194;28;20122;-64
2021/04/06 03:05:29;;;;;;;19.55;11.15;;;;;;;;;;4972435;28;20072;-65
2021/04/06 03:07:55;;;;;;;18.65;11.95;;;;;;;;;;4972308;28;20041;-63
2021/04/06 03:10:21;;;;;;;16.65;10.52;;;;;;;;;;4972299;28;20360;-67
2021/04/06 03:12:48;;;;;;;17.95;9.68;;;;;;;;;;4972173;28;20038;-63
2021/04/06 03:15:20;;;;;;;15.45;9.70;;;;;;;;;;4972295;28;20034;-62
2021/04/06 03:17:48;;;;;;;13.07;8.48;;;;;;;;;;4954269;28;20035;-64
2021/04/06 03:20:14;;;;;;;15.23;8.73;;;;;;;;;;4972249;28;20494;-63
2021/04/06 03:22:40;;;;;;;16.55;9.23;;;;;;;;;;4972376;28;20054;-66
2021/04/06 03:25:07;;;;;;;15.27;8.85;;;;;;;;;;4972196;28;20027;-63
2021/04/06 03:27:34;;;;;;;14.23;8.02;;;;;;;;;;4971909;28;20058;-63
2021/04/06 03:30:01;;;;;;;15.20;8.93;;;;;;;;;;4954561;28;20442;-63
2021/04/06 03:32:27;;;;;;;15.75;8.45;;;;;;;;;;4972073;28;20114;-63
2021/04/06 03:34:54;;;;;;;15.43;7.50;;;;;;;;;;4971900;28;20045;-64
2021/04/06 03:37:21;;;;;;;14.20;6.88;;;;;;;;;;4972159;28;20034;-63
2021/04/06 03:39:48;;;;;;;11.48;6.90;;;;;;;;;;4971931;28;20019;-64
2021/04/06 03:42:26;;;;;;;13.48;7.43;;;;;;;;;;4953840;28;20051;-63
2021/04/06 03:45:04;;;;;;;12.68;6.82;;;;;;;;;;4972244;28;20561;-63
2021/04/06 03:47:49;;;;;;;11.20;6.95;;;;;;;;;;4972091;28;20027;-66
2021/04/06 03:50:30;;;;;;;16.05;8.27;;;;;;;;;;4971987;28;20031;-67
2021/04/06 03:53:03;;;;;;;15.68;8.57;;;;;;;;;;4971839;28;20058;-63
2021/04/06 03:55:30;;;;;;;12.82;7.70;;;;;;;;;;4971993;28;20030;-66
2021/04/06 03:58:08;;;;;;;12.68;7.00;;;;;;;;;;4956915;28;20027;-64
2021/04/06 04:00:35;;;;;;;12.82;6.88;;;;;;;;;;4975665;28;20113;-67
2021/04/06 04:03:01;;;;;;;11.18;6.60;;;;;;;;;;4975396;28;20022;-63
2021/04/06 04:05:28;;;;;;;13.85;7.32;;;;;;;;;;4975090;28;20506;-65
2021/04/06 04:07:54;;;;;;;12.18;6.70;;;;;;;;;;4975321;28;20129;-67
2021/04/06 04:10:20;;;;;;;10.95;6.35;;;;;;;;;;4975223;28;20030;-63
2021/04/06 04:12:46;;;;;;;12.30;7.60;;;;;;;;;;4975388;28;20057;-64
2021/04/06 04:15:12;;;;;;;15.90;8.40;;;;;;;;;;4975448;28;20433;-65
2021/04/06 04:17:39;;;;;;;12.82;7.43;;;;;;;;;;4975251;28;20476;-63
2021/04/06 04:20:12;;;;;;;15.88;7.22;;;;;;;;;;4974783;28;20029;-65
2021/04/06 04:22:38;;;;;;;12.70;6.45;;;;;;;;;;4975332;28;20026;-63
2021/04/06 04:25:05;;;;;;;14.15;6.63;;;;;;;;;;4975332;28;20098;-66
2021/04/06 04:27:31;;;;;;;11.60;6.55;;;;;;;;;;4975184;28;20035;-63
2021/04/06 04:29:57;;;;;;;10.02;6.50;;;;;;;;;;4974905;28;20101;-63
2021/04/06 04:32:23;;;;;;;12.30;6.70;;;;;;;;;;4974590;28;20467;-64
2021/04/06 04:34:49;;;;;;;13.95;7.03;;;;;;;;;;4974743;28;20475;-63
2021/04/06 04:37:15;;;;;;;13.27;7.65;;;;;;;;;;4974941;28;20086;-66
2021/04/06 04:39:41;;;;;;;14.45;7.30;;;;;;;;;;4975150;28;20538;-63
2021/04/06 04:42:07;;;;;;;14.10;7.07;;;;;;;;;;4974326;28;20059;-67
2021/04/06 04:44:33;;;;;;;16.67;7.38;;;;;;;;;;4975050;28;20036;-64
2021/04/06 04:46:59;;;;;;;14.63;7.50;;;;;;;;;;4974462;28;20026;-66
2021/04/06 04:49:25;;;;;;;13.80;7.43;;;;;;;;;;4974574;28;20031;-63
2021/04/06 04:51:51;;;;;;;14.48;8.48;;;;;;;;;;4974773;28;20047;-64
2021/04/06 04:54:18;;;;;;;14.82;7.95;;;;;;;;;;4974725;28;20081;-63
2021/04/06 04:56:44;;;;;;;13.82;7.65;;;;;;;;;;4974544;28;20379;-64
2021/04/06 04:59:10;;;;;;;17.23;8.20;;;;;;;;;;4974395;28;20031;-63
2021/04/06 05:01:36;;;;;;;13.63;7.80;;;;;;;;;;4974346;28;20530;-63
2021/04/06 05:04:02;;;;;;;19.38;8.45;;;;;;;;;;4973811;28;20105;-63
2021/04/06 05:06:28;;;;;;;22.73;9.20;;;;;;;;;;4974224;28;20031;-63
2021/04/06 05:08:55;;;;;;;20.65;8.80;;;;;;;;;;4973666;28;20050;-65
2021/04/06 05:11:21;;;;;;;23.13;10.35;;;;;;;;;;4973953;28;20081;-64
2021/04/06 05:13:47;;;;;;;20.75;10.40;;;;;;;;;;4974331;28;20038;-63
2021/04/06 05:16:14;;;;;;;26.13;11.23;;;;;;;;;;4974418;28;20023;-63
2021/04/06 05:18:40;;;;;;;35.30;16.35;;;;;;;;;;4974168;28;20027;-63
2021/04/06 05:21:06;;;;;;;38.50;14.38;;;;;;;;;;4973908;28;20027;-65
2021/04/06 05:23:32;;;;;;;32.20;13.48;;;;;;;;;;4974181;28;20129;-63
2021/04/06 05:25:58;;;;;;;27.55;12.13;;;;;;;;;;4974133;28;20033;-63
2021/04/06 05:28:24;;;;;;;26.52;11.93;;;;;;;;;;4973722;28;20852;-62
2021/04/06 05:30:50;;;;;;;24.48;10.95;;;;;;;;;;4973918;28;20475;-63
2021/04/06 05:33:16;;;;;;;23.33;11.02;;;;;;;;;;4973756;28;20047;-64
2021/04/06 05:35:43;;;;;;;28.02;10.88;;;;;;;;;;4973839;28;20034;-63
2021/04/06 05:38:09;;;;;;;27.63;10.65;;;;;;;;;;4973870;28;20031;-64
2021/04/06 05:40:35;;;;;;;24.63;10.45;;;;;;;;;;4973206;28;20467;-63
2021/04/06 05:43:04;;;;;;;36.92;11.48;;;;;;;;;;4973579;28;20035;-64
2021/04/06 05:45:32;;;;;;;51.28;12.07;;;;;;;;;;4973252;28;20019;-62
2021/04/06 05:47:59;;;;;;;40.22;11.60;;;;;;;;;;4973328;28;20376;-64
2021/04/06 05:50:25;;;;;;;41.22;11.93;;;;;;;;;;4970874;28;20029;-64
2021/04/06 05:52:51;;;;;;;47.40;12.65;;;;;;;;;;4971981;28;20113;-65
2021/04/06 05:55:18;;;;;;;90.15;42.70;;;;;;;;;;4972217;28;20030;-65
2021/04/06 05:57:44;;;;;;;75.25;33.92;;;;;;;;;;4972072;28;20762;-67
2021/04/06 06:00:10;;;;;;;64.28;31.38;;;;;;;;;;4971889;28;20035;-62
2021/04/06 06:02:36;;;;;;;64.20;29.60;;;;;;;;;;4972273;28;20031;-63
2021/04/06 06:05:03;;;;;;;59.08;28.70;;;;;;;;;;4972554;28;20126;-65
2021/04/06 06:07:29;;;;;;;56.75;28.17;;;;;;;;;;4973177;28;20038;-61
2021/04/06 06:09:56;;;;;;;58.20;28.30;;;;;;;;;;4966510;28;20027;-62
2021/04/06 06:12:22;;;;;;;53.20;25.52;;;;;;;;;;4962874;28;20074;-64
2021/04/06 06:14:51;;;;;;;47.25;23.95;;;;;;;;;;4956257;28;20082;-65
2021/04/06 06:17:29;;;;;;;55.45;26.52;;;;;;;;;;4965944;28;20027;-69
2021/04/06 06:19:56;;;;;;;42.05;20.63;;;;;;;;;;4972303;28;20511;-63
2021/04/06 06:22:23;;;;;;;28.88;14.73;;;;;;;;;;4971759;28;20027;-63
2021/04/06 06:24:50;;;;;;;23.23;10.68;;;;;;;;;;4958004;28;20436;-63
2021/04/06 06:27:34;;;;;;;13.25;7.22;;;;;;;;;;4968230;28;20031;-61
2021/04/06 06:30:19;;;;;;;15.15;7.82;;;;;;;;;;4969202;28;20023;-68
2021/04/06 06:32:45;;;;;;;17.38;8.32;;;;;;;;;;4967482;28;20054;-62
2021/04/06 06:35:11;;;;;;;18.15;9.52;;;;;;;;;;4970084;28;20106;-63
2021/04/06 06:37:38;;;;;;;21.98;11.13;;;;;;;;;;4970583;28;20099;-69
2021/04/06 06:40:05;;;;;;;27.10;13.77;;;;;;;;;;4953412;28;20026;-65
2021/04/06 06:42:40;;;;;;;21.88;13.10;;;;;;;;;;4974413;28;20055;-72
2021/04/06 06:45:22;;;;;;;23.38;13.55;;;;;;;;;;4980146;28;20058;-66
2021/04/06 06:47:56;;;;;;;24.48;14.38;;;;;;;;;;4967947;28;20026;-70
2021/04/06 06:50:22;;;;;;;27.92;16.65;;;;;;;;;;4968686;28;20054;-63
2021/04/06 06:52:53;;;;;;;24.52;12.98;;;;;;;;;;4970571;28;20059;-63
2021/04/06 06:55:20;;;;;;;24.67;10.77;;;;;;;;;;4972506;28;20037;-72
2021/04/06 06:57:47;;;;;;;17.25;7.50;;;;;;;;;;4972645;28;20027;-71
2021/04/06 07:00:15;;;;;;;16.50;4.03;;;;;;;;;;4986246;28;20045;-73
2021/04/06 07:02:42;;;;;;;11.43;2.80;;;;;;;;;;4982285;28;20465;-65
2021/04/06 07:05:11;;;;;;;12.40;3.13;;;;;;;;;;4973055;28;20030;-63
2021/04/06 07:07:55;;;;;;;13.07;2.60;;;;;;;;;;4971459;28;20046;-61
2021/04/06 07:10:23;;;;;;;13.10;2.35;;;;;;;;;;4970605;28;20026;-63
2021/04/06 07:13:12;;;;;;;11.43;3.15;;;;;;;;;;4971964;28;20039;-62
2021/04/06 07:15:42;;;;;;;13.15;3.35;;;;;;;;;;4962030;28;20043;-68
2021/04/06 07:18:19;;;;;;;16.73;2.75;;;;;;;;;;4969634;28;20102;-61
2021/04/06 07:20:52;;;;;;;8.43;2.13;;;;;;;;;;4970982;28;20111;-65
2021/04/06 07:23:27;;;;;;;5.55;1.63;;;;;;;;;;4970203;28;20455;-69
2021/04/06 07:25:53;;;;;;;11.85;2.38;;;;;;;;;;4969956;28;20054;-66
2021/04/06 07:28:19;;;;;;;7.63;2.03;;;;;;;;;;4969522;28;20034;-64
2021/04/06 07:30:45;;;;;;;8.38;2.63;;;;;;;;;;4962128;28;20023;-64
2021/04/06 07:33:14;;;;;;;6.45;2.00;;;;;;;;;;4973889;28;20879;-70
2021/04/06 07:35:40;;;;;;;14.88;2.60;;;;;;;;;;4956023;28;20169;-64
2021/04/06 07:38:06;;;;;;;8.55;2.40;;;;;;;;;;4974311;28;20026;-64
2021/04/06 07:40:33;;;;;;;15.55;7.15;;;;;;;;;;4976107;28;20399;-63
2021/04/06 07:42:59;;;;;;;9.88;4.57;;;;;;;;;;4975239;28;20030;-75
2021/04/06 07:45:25;;;;;;;13.23;3.45;;;;;;;;;;4974119;28;20814;-67
2021/04/06 07:47:52;;;;;;;13.90;5.28;;;;;;;;;;4974283;28;20121;-63
2021/04/06 07:50:37;;;;;;;5.15;2.42;;;;;;;;;;4975240;28;20023;-70
2021/04/06 07:53:21;;;;;;;7.88;2.63;;;;;;;;;;4975601;28;20041;-63
2021/04/06 07:55:48;;;;;;;6.00;2.40;;;;;;;;;;4974246;28;20039;-63
2021/04/06 07:58:32;;;;;;;13.32;5.32;;;;;;;;;;4975079;28;20537;-74
2021/04/06 08:01:06;;;;;;;9.13;2.80;;;;;;;;;;4974008;28;20057;-62
2021/04/06 08:04:00;;;;;;;6.55;2.60;;;;;;;;;;4951268;29;20038;-62
2021/04/06 08:06:27;;;;;;;6.75;2.80;;;;;;;;;;4952971;29;20395;-64
2021/04/06 08:08:54;;;;;;;7.25;2.88;;;;;;;;;;4937736;29;20231;-63
2021/04/06 08:11:21;;;;;;;4.65;2.50;;;;;;;;;;4955504;28;20039;-62
2021/04/06 08:13:48;;;;;;;9.43;2.90;;;;;;;;;;4955581;29;20491;-67
2021/04/06 08:16:15;;;;;;;7.78;2.20;;;;;;;;;;4955612;29;20336;-62
2021/04/06 08:18:54;;;;;;;5.35;2.72;;;;;;;;;;4955418;29;20042;-73
2021/04/06 08:21:21;;;;;;;10.13;2.63;;;;;;;;;;4955637;29;20054;-74
2021/04/06 08:23:48;;;;;;;7.55;3.67;;;;;;;;;;4955702;29;20031;-74
2021/04/06 08:26:33;;;;;;;14.70;8.30;;;;;;;;;;4938238;29;20658;-70
2021/04/06 08:29:18;;;;;;;4.72;2.17;;;;;;;;;;4955419;29;20612;-64
2021/04/06 08:31:44;;;;;;;4.60;2.55;;;;;;;;;;4955292;29;20031;-63
2021/04/06 08:34:28;;;;;;;9.68;2.63;;;;;;;;;;4962980;28;20098;-73
2021/04/06 08:37:08;;;;;;;5.47;2.60;;;;;;;;;;4972058;28;20051;-71
2021/04/06 08:39:34;;;;;;;4.43;2.50;;;;;;;;;;4973499;28;20054;-73
2021/04/06 08:42:01;;;;;;;6.25;1.95;;;;;;;;;;4972967;28;20051;-61
2021/04/06 08:44:28;;;;;;;5.00;2.22;;;;;;;;;;4971935;28;20062;-69
2021/04/06 08:46:54;;;;;;;11.60;3.65;;;;;;;;;;4973180;28;20031;-61
2021/04/06 08:49:23;;;;;;;11.68;2.83;;;;;;;;;;4972696;28;20035;-61
2021/04/06 08:51:50;;;;;;;4.60;2.92;;;;;;;;;;4972417;28;20015;-62
2021/04/06 08:54:23;;;;;;;8.10;3.03;;;;;;;;;;4955675;28;20058;-61
2021/04/06 08:56:52;;;;;;;5.65;2.10;;;;;;;;;;4973009;28;20501;-62
2021/04/06 08:59:32;;;;;;;8.73;2.63;;;;;;;;;;4970437;28;20513;-73
2021/04/06 09:01:58;;;;;;;5.63;2.33;;;;;;;;;;4974152;28;20129;-73
2021/04/06 09:04:26;;;;;;;4.28;2.47;;;;;;;;;;4972428;28;20219;-70
2021/04/06 09:06:52;;;;;;;10.82;3.08;;;;;;;;;;4972717;28;20026;-65
2021/04/06 09:09:20;;;;;;;5.57;3.55;;;;;;;;;;4972401;28;20074;-70
2021/04/06 09:11:47;;;;;;;4.35;2.20;;;;;;;;;;4972873;28;20030;-61
2021/04/06 09:14:14;;;;;;;5.38;2.17;;;;;;;;;;4972140;28;20039;-64
2021/04/06 09:16:40;;;;;;;9.13;3.53;;;;;;;;;;4972287;28;20034;-70
2021/04/06 09:19:08;;;;;;;5.43;2.22;;;;;;;;;;4972461;28;20019;-65
2021/04/06 09:21:34;;;;;;;8.05;2.95;;;;;;;;;;4972458;28;20031;-63
2021/04/06 09:24:01;;;;;;;6.35;2.10;;;;;;;;;;4972660;28;20026;-64
2021/04/06 09:26:28;;;;;;;9.07;3.70;;;;;;;;;;4972555;28;20030;-66
2021/04/06 09:29:05;;;;;;;4.40;1.90;;;;;;;;;;4971722;28;20046;-62
2021/04/06 09:31:32;;;;;;;8.70;2.10;;;;;;;;;;4952757;28;20023;-66
2021/04/06 09:34:05;;;;;;;5.28;2.22;;;;;;;;;;4971774;28;20030;-66
2021/04/06 09:36:31;;;;;;;5.47;1.85;;;;;;;;;;4971965;28;20078;-65
2021/04/06 09:38:57;;;;;;;4.90;1.73;;;;;;;;;;4972338;28;20034;-68
2021/04/06 09:41:27;;;;;;;6.40;1.77;;;;;;;;;;4971676;28;20110;-63
2021/04/06 09:43:54;;;;;;;3.53;2.05;;;;;;;;;;4972222;28;20102;-65
2021/04/06 09:46:20;;;;;;;6.82;2.60;;;;;;;;;;4971790;28;20102;-63
2021/04/06 09:48:55;;;;;;;4.75;1.88;;;;;;;;;;4971763;28;20038;-65
2021/04/06 09:51:22;;;;;;;4.00;1.65;;;;;;;;;;4971253;28;20506;-74
2021/04/06 09:53:48;;;;;;;5.50;1.92;;;;;;;;;;4971533;28;20062;-72
2021/04/06 09:56:14;;;;;;;3.00;1.98;;;;;;;;;;4971421;28;20022;-66
2021/04/06 09:58:41;;;;;;;5.68;2.65;;;;;;;;;;4971759;28;20022;-69
2021/04/06 10:01:37;;;;;;;7.97;3.72;;;;;;;;;;4971779;28;20033;-60
2021/04/06 10:04:04;;;;;;;8.80;4.45;;;;;;;;;;4911808;29;20889;-70
2021/04/06 10:06:37;;;;;;;5.97;3.08;;;;;;;;;;4911888;29;20111;-72
2021/04/06 10:09:22;;;;;;;6.30;2.90;;;;;;;;;;4915649;29;20044;-64
2021/04/06 10:11:49;;;;;;;4.68;2.08;;;;;;;;;;4923591;29;20481;-62
2021/04/06 10:14:15;;;;;;;4.43;2.00;;;;;;;;;;4911716;29;20068;-61
2021/04/06 10:16:42;;;;;;;5.00;2.30;;;;;;;;;;4911434;29;20032;-64
2021/04/06 10:22:02;;;;;;;12.05;4.55;;;;;;;;;;4818990;26;20062;-63
2021/04/06 10:24:29;;;;;;;5.45;2.30;;;;;;;;;;4972132;28;20423;-61
2021/04/06 10:27:05;;;;;;;7.05;3.13;;;;;;;;;;4972480;28;20059;-63
2021/04/06 10:29:31;;;;;;;4.28;2.65;;;;;;;;;;4972262;28;20046;-63
2021/04/06 10:32:00;;;;;;;6.82;3.58;;;;;;;;;;4972279;28;20030;-63
2021/04/06 10:34:26;;;;;;;8.48;3.35;;;;;;;;;;4972252;28;20042;-75
2021/04/06 10:36:57;;;;;;;7.00;2.47;;;;;;;;;;4971814;28;20478;-63
2021/04/06 10:39:33;;;;;;;6.15;2.70;;;;;;;;;;4972338;28;20026;-77
2021/04/06 10:41:59;;;;;;;6.72;3.92;;;;;;;;;;4972071;28;20034;-75
2021/04/06 10:44:25;;;;;;;4.50;2.58;;;;;;;;;;4971537;28;20027;-70
2021/04/06 10:46:51;;;;;;;4.07;2.05;;;;;;;;;;4972368;28;20027;-77
2021/04/06 10:49:17;;;;;;;4.72;2.13;;;;;;;;;;4970263;28;20038;-77
2021/04/06 10:51:51;;;;;;;4.28;2.13;;;;;;;;;;4972328;28;20034;-79
2021/04/06 10:54:17;;;;;;;9.20;3.13;;;;;;;;;;4971938;28;20506;-81
2021/04/06 10:56:45;;;;;;;7.82;2.42;;;;;;;;;;4972321;28;20026;-64
2021/04/06 10:59:12;;;;;;;4.88;2.50;;;;;;;;;;4976136;28;20058;-76
2021/04/06 11:01:39;;;;;;;10.48;3.35;;;;;;;;;;4977734;28;20054;-71
2021/04/06 11:04:10;;;;;;;8.90;2.50;;;;;;;;;;4971942;28;20082;-80
2021/04/06 11:06:37;;;;;;;5.53;2.30;;;;;;;;;;4970830;28;20049;-63
2021/04/06 11:09:11;;;;;;;4.72;2.20;;;;;;;;;;4976780;28;20053;-77
2021/04/06 11:11:37;;;;;;;5.60;2.40;;;;;;;;;;4976891;28;20070;-62
2021/04/06 11:14:08;;;;;;;5.32;2.35;;;;;;;;;;4979987;28;20025;-63
2021/04/06 11:16:34;;;;;;;4.63;1.90;;;;;;;;;;4976074;28;20027;-65
2021/04/06 11:19:00;;;;;;;8.05;2.63;;;;;;;;;;4980269;28;20042;-67
2021/04/06 11:21:27;;;;;;;7.03;2.80;;;;;;;;;;4975130;28;20057;-76
2021/04/06 11:23:53;;;;;;;8.38;3.10;;;;;;;;;;5001567;28;20026;-63
2021/04/06 11:26:19;;;;;;;17.45;3.38;;;;;;;;;;4996324;28;20027;-63
2021/04/06 11:28:46;;;;;;;3.92;2.00;;;;;;;;;;4993480;28;20091;-65
2021/04/06 11:31:12;;;;;;;4.65;2.20;;;;;;;;;;4990149;28;20022;-66
2021/04/06 11:33:38;;;;;;;6.70;3.50;;;;;;;;;;4990144;28;20057;-66
2021/04/06 11:36:04;;;;;;;10.38;4.47;;;;;;;;;;4989447;28;20166;-73
2021/04/06 11:38:31;;;;;;;12.07;4.68;;;;;;;;;;4995643;28;20041;-66
2021/04/06 11:40:57;;;;;;;12.57;5.45;;;;;;;;;;4997135;28;20030;-73
2021/04/06 11:43:23;;;;;;;8.07;3.67;;;;;;;;;;4999983;28;20058;-63
2021/04/06 11:45:49;;;;;;;5.88;2.90;;;;;;;;;;4997407;28;20049;-73
2021/04/06 11:48:15;;;;;;;9.40;3.47;;;;;;;;;;4990842;28;20041;-64
2021/04/06 11:50:41;;;;;;;7.28;3.13;;;;;;;;;;4998736;28;20039;-64
2021/04/06 11:53:07;;;;;;;8.43;2.85;;;;;;;;;;4988574;28;20031;-66
2021/04/06 11:55:33;;;;;;;10.70;3.63;;;;;;;;;;4993222;28;20030;-65
2021/04/06 11:57:59;;;;;;;7.53;3.38;;;;;;;;;;4998166;28;20481;-66
2021/04/06 12:00:26;;;;;;;6.90;2.90;;;;;;;;;;5000189;28;20425;-65
2021/04/06 12:02:52;;;;;;;10.00;3.40;;;;;;;;;;4974392;28;20045;-68
2021/04/06 12:05:18;;;;;;;7.82;4.15;;;;;;;;;;4993748;28;20057;-71
2021/04/06 12:07:44;;;;;;;9.20;3.53;;;;;;;;;;4986390;28;20031;-68
2021/04/06 12:10:10;;;;;;;7.50;3.40;;;;;;;;;;4987768;28;20088;-71
2021/04/06 12:12:37;;;;;;;12.70;3.88;;;;;;;;;;4997768;28;20053;-72
2021/04/06 12:15:03;;;;;;;6.68;3.08;;;;;;;;;;4995918;28;20034;-70
2021/04/06 12:17:29;;;;;;;8.23;2.55;;;;;;;;;;4999574;28;20469;-65
2021/04/06 12:19:55;;;;;;;7.78;4.10;;;;;;;;;;4991853;28;20022;-72
2021/04/06 12:22:21;;;;;;;6.97;3.17;;;;;;;;;;4994635;28;20030;-67
2021/04/06 12:24:47;;;;;;;5.50;3.00;;;;;;;;;;4993317;28;20081;-66
2021/04/06 12:27:13;;;;;;;9.68;3.05;;;;;;;;;;4992804;28;20172;-71
2021/04/06 12:29:39;;;;;;;9.40;3.58;;;;;;;;;;4992406;28;20038;-67
2021/04/06 12:32:06;;;;;;;8.60;3.00;;;;;;;;;;4992316;28;20026;-66
2021/04/06 12:34:32;;;;;;;7.05;3.28;;;;;;;;;;4992007;28;20038;-66
2021/04/06 12:36:58;;;;;;;17.45;7.22;;;;;;;;;;4991867;28;20042;-68
2021/04/06 12:39:24;;;;;;;11.77;4.07;;;;;;;;;;4992355;28;20025;-68
2021/04/06 12:41:50;;;;;;;5.50;3.03;;;;;;;;;;4993308;28;20022;-66
2021/04/06 12:44:16;;;;;;;8.25;3.10;;;;;;;;;;4993519;28;21009;-66
2021/04/06 12:46:42;;;;;;;9.45;3.58;;;;;;;;;;4993979;28;20077;-68
2021/04/06 12:49:08;;;;;;;4.03;2.22;;;;;;;;;;4993441;28;20486;-67
2021/04/06 12:51:34;;;;;;;7.18;3.63;;;;;;;;;;4992618;28;20395;-74
2021/04/06 12:54:00;;;;;;;14.30;6.45;;;;;;;;;;4993583;28;20494;-68
2021/04/06 12:56:26;;;;;;;7.30;2.67;;;;;;;;;;4975572;28;20155;-66
2021/04/06 12:58:54;;;;;;;8.05;3.75;;;;;;;;;;4992889;28;20378;-70
2021/04/06 13:01:20;;;;;;;6.93;3.22;;;;;;;;;;4992151;28;20110;-79
2021/04/06 13:03:46;;;;;;;8.75;3.00;;;;;;;;;;4991809;28;20732;-66
2021/04/06 13:06:12;;;;;;;6.43;2.33;;;;;;;;;;4991682;28;20056;-65
2021/04/06 13:08:38;;;;;;;5.68;2.47;;;;;;;;;;4991758;28;20042;-71
2021/04/06 13:11:04;;;;;;;5.70;2.88;;;;;;;;;;4991813;28;20030;-74
2021/04/06 13:13:32;;;;;;;6.32;3.10;;;;;;;;;;4991633;28;20129;-69
2021/04/06 13:15:58;;;;;;;7.45;3.30;;;;;;;;;;4990819;28;20085;-72
2021/04/06 13:18:24;;;;;;;7.15;3.75;;;;;;;;;;4989787;28;20058;-69
2021/04/06 13:20:50;;;;;;;8.27;3.67;;;;;;;;;;4989514;28;20061;-68
2021/04/06 13:23:16;;;;;;;12.43;4.30;;;;;;;;;;4990040;28;20057;-73
2021/04/06 13:25:43;;;;;;;7.07;2.88;;;;;;;;;;4991392;28;20034;-71
2021/04/06 13:28:09;;;;;;;5.00;2.60;;;;;;;;;;4973161;28;20045;-72
2021/04/06 13:30:36;;;;;;;7.40;3.97;;;;;;;;;;4992260;28;20022;-66
2021/04/06 13:33:02;;;;;;;4.78;2.70;;;;;;;;;;4993203;28;20030;-70
2021/04/06 13:35:28;;;;;;;16.65;7.32;;;;;;;;;;4992253;28;20474;-67
2021/04/06 13:37:54;;;;;;;14.35;7.03;;;;;;;;;;4989645;28;20022;-69
2021/04/06 13:40:21;;;;;;;8.13;4.15;;;;;;;;;;4991723;28;20037;-80
2021/04/06 13:42:47;;;;;;;11.32;4.47;;;;;;;;;;4991436;28;20117;-72
2021/04/06 13:45:15;;;;;;;8.00;4.20;;;;;;;;;;4974703;28;20022;-73
2021/04/06 13:47:41;;;;;;;10.13;3.60;;;;;;;;;;4991422;28;20026;-67
2021/04/06 13:50:08;;;;;;;8.00;3.70;;;;;;;;;;4987914;28;20524;-66
2021/04/06 13:52:34;;;;;;;5.88;3.70;;;;;;;;;;4988235;28;20022;-68
2021/04/06 13:55:01;;;;;;;9.50;4.50;;;;;;;;;;4991852;28;20018;-64
2021/04/06 13:57:27;;;;;;;8.60;3.90;;;;;;;;;;4991403;28;20030;-68
2021/04/06 13:59:54;;;;;;;7.57;3.42;;;;;;;;;;4991009;28;20739;-76
2021/04/06 14:02:20;;;;;;;9.05;3.55;;;;;;;;;;4991784;28;20057;-74
2021/04/06 14:04:46;;;;;;;7.10;3.00;;;;;;;;;;4972479;28;20069;-72
2021/04/06 14:07:13;;;;;;;6.05;3.80;;;;;;;;;;4988460;28;20014;-70
2021/04/06 14:09:39;;;;;;;5.68;3.53;;;;;;;;;;4990409;28;20037;-66
2021/04/06 14:12:05;;;;;;;12.10;5.68;;;;;;;;;;4990719;28;20026;-74
2021/04/06 14:14:31;;;;;;;8.77;4.32;;;;;;;;;;4990483;28;20680;-73
2021/04/06 14:16:58;;;;;;;7.35;4.50;;;;;;;;;;4990718;28;20219;-72
2021/04/06 14:19:24;;;;;;;10.48;4.10;;;;;;;;;;4989451;28;20583;-67
2021/04/06 14:21:50;;;;;;;8.45;3.85;;;;;;;;;;4989407;28;20050;-66
2021/04/06 14:24:16;;;;;;;9.80;4.30;;;;;;;;;;4988680;28;20168;-75
2021/04/06 14:26:42;;;;;;;8.52;4.32;;;;;;;;;;4989727;28;20018;-68
2021/04/06 14:29:08;;;;;;;10.80;5.80;;;;;;;;;;4972274;28;20437;-67
2021/04/06 14:31:36;;;;;;;13.88;7.93;;;;;;;;;;4991085;28;20029;-67
2021/04/06 14:34:02;;;;;;;13.70;7.82;;;;;;;;;;4990789;28;20412;-68
2021/04/06 14:36:29;;;;;;;17.40;8.00;;;;;;;;;;4991357;28;20026;-70
2021/04/06 14:38:55;;;;;;;17.65;7.53;;;;;;;;;;4991973;28;20034;-69
2021/04/06 14:41:21;;;;;;;9.00;3.90;;;;;;;;;;4993693;28;20037;-65
2021/04/06 14:43:47;;;;;;;8.82;4.28;;;;;;;;;;4988312;28;20513;-69